sensor_id;sensor_type;location;lat;lon;timestamp;P1;durP1;ratioP1;P2;durP2;ratioP2
42760;SDS011;31672;47.638;19.026;2022-12-10T00:03:48;18.70;;;9.53;;
42760;SDS011;31672;47.638;19.026;2022-12-10T00:08:51;21.23;;;9.23;;
42760;SDS011;31672;47.638;19.026;2022-12-10T00:13:55;25.80;;;12.23;;
42760;SDS011;31672;47.638;19.026;2022-12-10T00:19:00;23.60;;;10.87;;
42760;SDS011;31672;47.638;19.026;2022-12-10T00:24:04;20.80;;;11.17;;
42760;SDS011;31672;47.638;19.026;2022-12-10T00:29:09;20.13;;;9.60;;
42760;SDS011;31672;47.638;19.026;2022-12-10T00:34:14;17.93;;;8.57;;
42760;SDS011;31672;47.638;19.026;2022-12-10T00:39:18;16.80;;;8.43;;
42760;SDS011;31672;47.638;19.026;2022-12-10T00:44:22;17.77;;;7.10;;
42760;SDS011;31672;47.638;19.026;2022-12-10T00:49:25;17.00;;;7.20;;
42760;SDS011;31672;47.638;19.026;2022-12-10T00:54:28;30.50;;;14.20;;
42760;SDS011;31672;47.638;19.026;2022-12-10T00:59:31;23.37;;;11.30;;
42760;SDS011;31672;47.638;19.026;2022-12-10T01:04:34;20.43;;;9.57;;
42760;SDS011;31672;47.638;19.026;2022-12-10T01:09:37;21.17;;;11.17;;
42760;SDS011;31672;47.638;19.026;2022-12-10T01:14:40;22.43;;;9.93;;
42760;SDS011;31672;47.638;19.026;2022-12-10T01:19:43;14.63;;;7.90;;
42760;SDS011;31672;47.638;19.026;2022-12-10T01:24:46;14.07;;;6.90;;
42760;SDS011;31672;47.638;19.026;2022-12-10T01:29:49;13.83;;;6.80;;
42760;SDS011;31672;47.638;19.026;2022-12-10T01:34:52;10.57;;;5.93;;
42760;SDS011;31672;47.638;19.026;2022-12-10T01:39:55;10.90;;;5.53;;
42760;SDS011;31672;47.638;19.026;2022-12-10T01:44:59;13.77;;;7.07;;
42760;SDS011;31672;47.638;19.026;2022-12-10T01:50:07;12.50;;;5.57;;
42760;SDS011;31672;47.638;19.026;2022-12-10T02:07:13;18.17;;;7.30;;
42760;SDS011;31672;47.638;19.026;2022-12-10T02:12:18;16.13;;;7.73;;
42760;SDS011;31672;47.638;19.026;2022-12-10T02:17:58;17.60;;;8.00;;
42760;SDS011;31672;47.638;19.026;2022-12-10T02:23:11;12.37;;;5.67;;
42760;SDS011;31672;47.638;19.026;2022-12-10T02:33:48;18.53;;;7.40;;
42760;SDS011;31672;47.638;19.026;2022-12-10T02:38:59;20.25;;;7.93;;
42760;SDS011;31672;47.638;19.026;2022-12-10T02:44:07;17.50;;;7.63;;
42760;SDS011;31672;47.638;19.026;2022-12-10T02:49:14;19.23;;;6.87;;
42760;SDS011;31672;47.638;19.026;2022-12-10T03:00:00;12.07;;;5.43;;
42760;SDS011;31672;47.638;19.026;2022-12-10T03:10:58;10.47;;;5.13;;
42760;SDS011;31672;47.638;19.026;2022-12-10T03:16:11;11.93;;;4.70;;
42760;SDS011;31672;47.638;19.026;2022-12-10T03:21:17;14.27;;;4.77;;
42760;SDS011;31672;47.638;19.026;2022-12-10T03:26:21;14.30;;;4.60;;
42760;SDS011;31672;47.638;19.026;2022-12-10T03:31:25;11.83;;;4.33;;
42760;SDS011;31672;47.638;19.026;2022-12-10T03:36:29;12.57;;;5.30;;
42760;SDS011;31672;47.638;19.026;2022-12-10T03:41:33;15.37;;;5.43;;
42760;SDS011;31672;47.638;19.026;2022-12-10T03:46:36;11.90;;;5.90;;
42760;SDS011;31672;47.638;19.026;2022-12-10T03:51:39;11.63;;;5.40;;
42760;SDS011;31672;47.638;19.026;2022-12-10T03:56:42;11.10;;;5.00;;
42760;SDS011;31672;47.638;19.026;2022-12-10T04:01:45;15.37;;;5.63;;
42760;SDS011;31672;47.638;19.026;2022-12-10T04:06:48;14.60;;;5.07;;
42760;SDS011;31672;47.638;19.026;2022-12-10T04:11:54;12.30;;;4.90;;
42760;SDS011;31672;47.638;19.026;2022-12-10T04:16:59;12.03;;;4.47;;
42760;SDS011;31672;47.638;19.026;2022-12-10T04:22:02;9.23;;;4.63;;
42760;SDS011;31672;47.638;19.026;2022-12-10T04:27:25;10.70;;;4.60;;
42760;SDS011;31672;47.638;19.026;2022-12-10T04:32:40;10.60;;;4.23;;
42760;SDS011;31672;47.638;19.026;2022-12-10T04:37:42;13.90;;;5.33;;
42760;SDS011;31672;47.638;19.026;2022-12-10T04:42:45;11.43;;;4.90;;
42760;SDS011;31672;47.638;19.026;2022-12-10T04:47:48;11.30;;;4.70;;
42760;SDS011;31672;47.638;19.026;2022-12-10T04:52:51;13.03;;;5.70;;
42760;SDS011;31672;47.638;19.026;2022-12-10T04:57:54;19.03;;;7.47;;
42760;SDS011;31672;47.638;19.026;2022-12-10T05:02:57;17.27;;;6.83;;
42760;SDS011;31672;47.638;19.026;2022-12-10T05:08:00;18.43;;;6.90;;
42760;SDS011;31672;47.638;19.026;2022-12-10T05:13:03;18.13;;;6.67;;
42760;SDS011;31672;47.638;19.026;2022-12-10T05:18:07;18.33;;;7.37;;
42760;SDS011;31672;47.638;19.026;2022-12-10T05:23:10;21.93;;;7.83;;
42760;SDS011;31672;47.638;19.026;2022-12-10T05:28:31;21.67;;;8.07;;
42760;SDS011;31672;47.638;19.026;2022-12-10T05:33:43;22.27;;;7.40;;
42760;SDS011;31672;47.638;19.026;2022-12-10T05:38:46;17.33;;;8.23;;
42760;SDS011;31672;47.638;19.026;2022-12-10T05:43:52;27.17;;;12.97;;
42760;SDS011;31672;47.638;19.026;2022-12-10T05:48:57;18.80;;;7.33;;
42760;SDS011;31672;47.638;19.026;2022-12-10T05:54:02;21.83;;;8.37;;
42760;SDS011;31672;47.638;19.026;2022-12-10T05:59:07;24.93;;;10.20;;
42760;SDS011;31672;47.638;19.026;2022-12-10T06:04:17;20.47;;;8.73;;
42760;SDS011;31672;47.638;19.026;2022-12-10T06:09:20;20.87;;;9.70;;
42760;SDS011;31672;47.638;19.026;2022-12-10T06:14:23;22.97;;;10.20;;
42760;SDS011;31672;47.638;19.026;2022-12-10T06:19:28;27.20;;;11.63;;
42760;SDS011;31672;47.638;19.026;2022-12-10T06:24:31;25.17;;;10.17;;
42760;SDS011;31672;47.638;19.026;2022-12-10T06:29:34;23.40;;;9.13;;
42760;SDS011;31672;47.638;19.026;2022-12-10T06:34:37;19.63;;;8.77;;
42760;SDS011;31672;47.638;19.026;2022-12-10T06:39:44;22.70;;;9.50;;
42760;SDS011;31672;47.638;19.026;2022-12-10T06:44:47;25.37;;;10.67;;
42760;SDS011;31672;47.638;19.026;2022-12-10T06:49:49;27.43;;;11.03;;
42760;SDS011;31672;47.638;19.026;2022-12-10T06:54:52;25.73;;;11.40;;
42760;SDS011;31672;47.638;19.026;2022-12-10T06:59:57;42.90;;;15.83;;
42760;SDS011;31672;47.638;19.026;2022-12-10T07:05:00;27.57;;;13.10;;
42760;SDS011;31672;47.638;19.026;2022-12-10T07:10:03;21.67;;;11.27;;
42760;SDS011;31672;47.638;19.026;2022-12-10T07:15:08;25.90;;;11.17;;
42760;SDS011;31672;47.638;19.026;2022-12-10T07:20:11;20.37;;;9.73;;
42760;SDS011;31672;47.638;19.026;2022-12-10T07:25:15;19.57;;;8.90;;
42760;SDS011;31672;47.638;19.026;2022-12-10T07:30:18;19.07;;;9.57;;
42760;SDS011;31672;47.638;19.026;2022-12-10T07:35:21;21.97;;;8.93;;
42760;SDS011;31672;47.638;19.026;2022-12-10T07:40:24;29.10;;;12.30;;
42760;SDS011;31672;47.638;19.026;2022-12-10T07:45:26;27.70;;;13.43;;
42760;SDS011;31672;47.638;19.026;2022-12-10T07:50:29;34.07;;;16.20;;
42760;SDS011;31672;47.638;19.026;2022-12-10T07:55:32;29.70;;;15.97;;
42760;SDS011;31672;47.638;19.026;2022-12-10T08:00:36;29.37;;;14.07;;
42760;SDS011;31672;47.638;19.026;2022-12-10T08:05:39;24.63;;;11.40;;
42760;SDS011;31672;47.638;19.026;2022-12-10T08:10:43;20.60;;;9.97;;
42760;SDS011;31672;47.638;19.026;2022-12-10T08:15:46;24.67;;;11.87;;
42760;SDS011;31672;47.638;19.026;2022-12-10T08:20:49;22.87;;;11.90;;
42760;SDS011;31672;47.638;19.026;2022-12-10T08:25:52;15.93;;;9.47;;
42760;SDS011;31672;47.638;19.026;2022-12-10T08:30:55;14.40;;;7.17;;
42760;SDS011;31672;47.638;19.026;2022-12-10T08:35:58;11.00;;;6.53;;
42760;SDS011;31672;47.638;19.026;2022-12-10T08:41:06;12.87;;;7.43;;
42760;SDS011;31672;47.638;19.026;2022-12-10T08:46:11;14.50;;;7.63;;
42760;SDS011;31672;47.638;19.026;2022-12-10T08:51:17;12.77;;;7.37;;
42760;SDS011;31672;47.638;19.026;2022-12-10T08:56:21;15.37;;;9.03;;
42760;SDS011;31672;47.638;19.026;2022-12-10T09:01:24;14.30;;;7.70;;
42760;SDS011;31672;47.638;19.026;2022-12-10T09:06:27;13.87;;;7.27;;
42760;SDS011;31672;47.638;19.026;2022-12-10T09:11:31;10.87;;;5.73;;
42760;SDS011;31672;47.638;19.026;2022-12-10T09:16:36;21.67;;;10.17;;
42760;SDS011;31672;47.638;19.026;2022-12-10T09:21:41;10.27;;;5.90;;
42760;SDS011;31672;47.638;19.026;2022-12-10T09:26:44;12.57;;;7.17;;
42760;SDS011;31672;47.638;19.026;2022-12-10T09:31:49;17.47;;;9.43;;
42760;SDS011;31672;47.638;19.026;2022-12-10T09:36:54;18.50;;;10.27;;
42760;SDS011;31672;47.638;19.026;2022-12-10T09:42:07;22.53;;;11.40;;
42760;SDS011;31672;47.638;19.026;2022-12-10T09:47:40;24.03;;;11.70;;
42760;SDS011;31672;47.638;19.026;2022-12-10T09:52:59;36.40;;;16.42;;
42760;SDS011;31672;47.638;19.026;2022-12-10T09:58:04;24.50;;;13.60;;
42760;SDS011;31672;47.638;19.026;2022-12-10T10:03:12;25.47;;;12.87;;
42760;SDS011;31672;47.638;19.026;2022-12-10T10:13:35;28.07;;;14.53;;
42760;SDS011;31672;47.638;19.026;2022-12-10T10:18:56;34.13;;;17.63;;
42760;SDS011;31672;47.638;19.026;2022-12-10T10:24:29;36.73;;;17.30;;
42760;SDS011;31672;47.638;19.026;2022-12-10T10:29:38;27.02;;;13.02;;
42760;SDS011;31672;47.638;19.026;2022-12-10T10:34:42;34.63;;;16.97;;
42760;SDS011;31672;47.638;19.026;2022-12-10T10:39:47;26.30;;;13.03;;
42760;SDS011;31672;47.638;19.026;2022-12-10T10:44:52;33.80;;;15.17;;
42760;SDS011;31672;47.638;19.026;2022-12-10T10:49:55;20.87;;;11.10;;
42760;SDS011;31672;47.638;19.026;2022-12-10T10:54:58;19.77;;;10.07;;
42760;SDS011;31672;47.638;19.026;2022-12-10T11:05:20;19.67;;;10.03;;
42760;SDS011;31672;47.638;19.026;2022-12-10T11:10:36;17.73;;;9.00;;
42760;SDS011;31672;47.638;19.026;2022-12-10T11:15:40;16.27;;;8.50;;
42760;SDS011;31672;47.638;19.026;2022-12-10T11:20:43;19.97;;;9.90;;
42760;SDS011;31672;47.638;19.026;2022-12-10T11:36:45;15.57;;;8.63;;
42760;SDS011;31672;47.638;19.026;2022-12-10T11:47:27;21.97;;;11.90;;
42760;SDS011;31672;47.638;19.026;2022-12-10T12:04:00;30.63;;;15.47;;
42760;SDS011;31672;47.638;19.026;2022-12-10T12:09:34;28.07;;;14.70;;
42760;SDS011;31672;47.638;19.026;2022-12-10T12:20:25;38.93;;;18.20;;
42760;SDS011;31672;47.638;19.026;2022-12-10T12:25:56;31.00;;;15.63;;
42760;SDS011;31672;47.638;19.026;2022-12-10T12:31:09;33.60;;;16.20;;
42760;SDS011;31672;47.638;19.026;2022-12-10T12:36:23;26.60;;;12.83;;
42760;SDS011;31672;47.638;19.026;2022-12-10T12:52:53;21.05;;;11.10;;
42760;SDS011;31672;47.638;19.026;2022-12-10T12:58:11;16.70;;;8.97;;
42760;SDS011;31672;47.638;19.026;2022-12-10T13:03:41;18.47;;;9.00;;
42760;SDS011;31672;47.638;19.026;2022-12-10T13:08:47;19.30;;;10.00;;
42760;SDS011;31672;47.638;19.026;2022-12-10T13:14:15;18.80;;;9.53;;
42760;SDS011;31672;47.638;19.026;2022-12-10T13:19:32;23.80;;;10.33;;
42760;SDS011;31672;47.638;19.026;2022-12-10T13:29:44;28.33;;;13.40;;
42760;SDS011;31672;47.638;19.026;2022-12-10T13:46:16;23.83;;;11.00;;
42760;SDS011;31672;47.638;19.026;2022-12-10T13:57:04;26.03;;;13.07;;
42760;SDS011;31672;47.638;19.026;2022-12-10T14:02:44;31.43;;;13.70;;
42760;SDS011;31672;47.638;19.026;2022-12-10T14:08:13;21.65;;;11.20;;
42760;SDS011;31672;47.638;19.026;2022-12-10T14:14:11;33.60;;;15.30;;
42760;SDS011;31672;47.638;19.026;2022-12-10T14:19:01;38.83;;;17.38;;
42760;SDS011;31672;47.638;19.026;2022-12-10T14:24:28;35.50;;;17.23;;
42760;SDS011;31672;47.638;19.026;2022-12-10T14:29:37;30.13;;;14.80;;
42760;SDS011;31672;47.638;19.026;2022-12-10T14:34:57;27.57;;;13.80;;
42760;SDS011;31672;47.638;19.026;2022-12-10T14:40:03;27.50;;;13.10;;
42760;SDS011;31672;47.638;19.026;2022-12-10T14:45:13;19.97;;;10.70;;
42760;SDS011;31672;47.638;19.026;2022-12-10T14:50:17;22.47;;;11.13;;
42760;SDS011;31672;47.638;19.026;2022-12-10T14:55:21;22.87;;;11.57;;
42760;SDS011;31672;47.638;19.026;2022-12-10T15:00:26;21.90;;;11.43;;
42760;SDS011;31672;47.638;19.026;2022-12-10T15:05:30;25.77;;;12.17;;
42760;SDS011;31672;47.638;19.026;2022-12-10T15:10:38;20.30;;;10.83;;
42760;SDS011;31672;47.638;19.026;2022-12-10T15:15:49;24.03;;;10.77;;
42760;SDS011;31672;47.638;19.026;2022-12-10T15:20:54;23.70;;;12.27;;
42760;SDS011;31672;47.638;19.026;2022-12-10T15:26:22;25.90;;;13.70;;
42760;SDS011;31672;47.638;19.026;2022-12-10T15:31:31;17.40;;;9.13;;
42760;SDS011;31672;47.638;19.026;2022-12-10T15:36:37;23.73;;;11.27;;
42760;SDS011;31672;47.638;19.026;2022-12-10T15:41:43;18.60;;;9.83;;
42760;SDS011;31672;47.638;19.026;2022-12-10T15:46:51;22.23;;;11.03;;
42760;SDS011;31672;47.638;19.026;2022-12-10T15:52:21;15.53;;;8.83;;
42760;SDS011;31672;47.638;19.026;2022-12-10T15:57:34;17.10;;;9.03;;
42760;SDS011;31672;47.638;19.026;2022-12-10T16:02:43;14.20;;;7.33;;
42760;SDS011;31672;47.638;19.026;2022-12-10T16:07:51;17.07;;;9.13;;
42760;SDS011;31672;47.638;19.026;2022-12-10T16:18:08;23.05;;;11.88;;
42760;SDS011;31672;47.638;19.026;2022-12-10T16:23:13;20.40;;;9.90;;
42760;SDS011;31672;47.638;19.026;2022-12-10T16:28:18;20.90;;;10.93;;
42760;SDS011;31672;47.638;19.026;2022-12-10T16:33:24;16.43;;;9.03;;
42760;SDS011;31672;47.638;19.026;2022-12-10T16:38:29;12.23;;;7.43;;
42760;SDS011;31672;47.638;19.026;2022-12-10T16:43:32;17.73;;;10.07;;
42760;SDS011;31672;47.638;19.026;2022-12-10T16:48:35;23.33;;;13.23;;
42760;SDS011;31672;47.638;19.026;2022-12-10T16:53:37;32.63;;;15.50;;
42760;SDS011;31672;47.638;19.026;2022-12-10T16:58:41;25.53;;;12.27;;
42760;SDS011;31672;47.638;19.026;2022-12-10T17:03:46;22.90;;;12.90;;
42760;SDS011;31672;47.638;19.026;2022-12-10T17:08:50;20.53;;;11.87;;
42760;SDS011;31672;47.638;19.026;2022-12-10T17:13:53;21.57;;;11.77;;
42760;SDS011;31672;47.638;19.026;2022-12-10T17:18:56;23.07;;;12.90;;
42760;SDS011;31672;47.638;19.026;2022-12-10T17:23:59;22.93;;;11.60;;
42760;SDS011;31672;47.638;19.026;2022-12-10T17:29:08;20.90;;;9.10;;
42760;SDS011;31672;47.638;19.026;2022-12-10T17:34:28;16.23;;;8.07;;
42760;SDS011;31672;47.638;19.026;2022-12-10T17:39:31;20.80;;;11.80;;
42760;SDS011;31672;47.638;19.026;2022-12-10T17:44:34;23.67;;;14.50;;
42760;SDS011;31672;47.638;19.026;2022-12-10T17:49:38;22.97;;;12.43;;
42760;SDS011;31672;47.638;19.026;2022-12-10T17:54:42;20.60;;;11.73;;
42760;SDS011;31672;47.638;19.026;2022-12-10T17:59:45;21.20;;;10.63;;
42760;SDS011;31672;47.638;19.026;2022-12-10T18:04:48;17.90;;;8.30;;
42760;SDS011;31672;47.638;19.026;2022-12-10T18:09:52;18.13;;;8.87;;
42760;SDS011;31672;47.638;19.026;2022-12-10T18:14:54;20.50;;;10.30;;
42760;SDS011;31672;47.638;19.026;2022-12-10T18:19:57;22.60;;;10.60;;
42760;SDS011;31672;47.638;19.026;2022-12-10T18:25:00;17.30;;;9.20;;
42760;SDS011;31672;47.638;19.026;2022-12-10T18:30:04;13.07;;;6.60;;
42760;SDS011;31672;47.638;19.026;2022-12-10T18:35:08;9.97;;;5.27;;
42760;SDS011;31672;47.638;19.026;2022-12-10T18:40:16;11.00;;;5.70;;
42760;SDS011;31672;47.638;19.026;2022-12-10T18:45:23;9.93;;;6.93;;
42760;SDS011;31672;47.638;19.026;2022-12-10T18:50:26;11.83;;;6.50;;
42760;SDS011;31672;47.638;19.026;2022-12-10T18:55:31;11.87;;;6.57;;
42760;SDS011;31672;47.638;19.026;2022-12-10T19:00:34;11.60;;;6.87;;
42760;SDS011;31672;47.638;19.026;2022-12-10T19:05:37;15.27;;;7.57;;
42760;SDS011;31672;47.638;19.026;2022-12-10T19:10:40;15.07;;;7.30;;
42760;SDS011;31672;47.638;19.026;2022-12-10T19:15:43;11.53;;;5.83;;
42760;SDS011;31672;47.638;19.026;2022-12-10T19:20:49;10.30;;;5.60;;
42760;SDS011;31672;47.638;19.026;2022-12-10T19:25:58;9.80;;;4.93;;
42760;SDS011;31672;47.638;19.026;2022-12-10T19:31:01;11.87;;;5.50;;
42760;SDS011;31672;47.638;19.026;2022-12-10T19:36:08;10.50;;;5.53;;
42760;SDS011;31672;47.638;19.026;2022-12-10T19:41:29;10.17;;;5.50;;
42760;SDS011;31672;47.638;19.026;2022-12-10T19:46:32;12.20;;;6.33;;
42760;SDS011;31672;47.638;19.026;2022-12-10T19:51:36;11.20;;;4.60;;
42760;SDS011;31672;47.638;19.026;2022-12-10T19:56:39;8.50;;;4.20;;
42760;SDS011;31672;47.638;19.026;2022-12-10T20:01:43;6.90;;;4.43;;
42760;SDS011;31672;47.638;19.026;2022-12-10T20:06:47;7.87;;;4.23;;
42760;SDS011;31672;47.638;19.026;2022-12-10T20:11:51;9.13;;;5.17;;
42760;SDS011;31672;47.638;19.026;2022-12-10T20:16:55;7.83;;;4.63;;
42760;SDS011;31672;47.638;19.026;2022-12-10T20:21:58;7.53;;;4.10;;
42760;SDS011;31672;47.638;19.026;2022-12-10T20:27:01;7.20;;;4.33;;
42760;SDS011;31672;47.638;19.026;2022-12-10T20:32:04;8.90;;;4.10;;
42760;SDS011;31672;47.638;19.026;2022-12-10T20:37:08;7.43;;;4.10;;
42760;SDS011;31672;47.638;19.026;2022-12-10T20:42:14;8.57;;;4.30;;
42760;SDS011;31672;47.638;19.026;2022-12-10T20:47:17;9.00;;;4.83;;
42760;SDS011;31672;47.638;19.026;2022-12-10T20:52:20;10.27;;;4.60;;
42760;SDS011;31672;47.638;19.026;2022-12-10T20:57:23;6.53;;;3.83;;
42760;SDS011;31672;47.638;19.026;2022-12-10T21:02:26;10.77;;;5.77;;
42760;SDS011;31672;47.638;19.026;2022-12-10T21:07:29;7.77;;;4.50;;
42760;SDS011;31672;47.638;19.026;2022-12-10T21:12:32;6.50;;;4.10;;
42760;SDS011;31672;47.638;19.026;2022-12-10T21:17:35;5.73;;;3.40;;
42760;SDS011;31672;47.638;19.026;2022-12-10T21:22:39;5.93;;;3.80;;
42760;SDS011;31672;47.638;19.026;2022-12-10T21:27:42;5.97;;;3.43;;
42760;SDS011;31672;47.638;19.026;2022-12-10T21:32:46;6.50;;;3.10;;
42760;SDS011;31672;47.638;19.026;2022-12-10T21:37:49;6.93;;;3.20;;
42760;SDS011;31672;47.638;19.026;2022-12-10T21:42:52;5.37;;;2.97;;
42760;SDS011;31672;47.638;19.026;2022-12-10T21:48:14;6.47;;;3.23;;
42760;SDS011;31672;47.638;19.026;2022-12-10T21:53:20;6.70;;;3.47;;
42760;SDS011;31672;47.638;19.026;2022-12-10T21:58:23;6.07;;;3.43;;
42760;SDS011;31672;47.638;19.026;2022-12-10T22:03:26;5.80;;;2.83;;
42760;SDS011;31672;47.638;19.026;2022-12-10T22:08:29;5.30;;;2.67;;
42760;SDS011;31672;47.638;19.026;2022-12-10T22:13:32;5.87;;;3.07;;
42760;SDS011;31672;47.638;19.026;2022-12-10T22:18:35;6.07;;;3.10;;
42760;SDS011;31672;47.638;19.026;2022-12-10T22:23:38;6.97;;;3.47;;
42760;SDS011;31672;47.638;19.026;2022-12-10T22:28:41;6.87;;;3.20;;
42760;SDS011;31672;47.638;19.026;2022-12-10T22:33:44;7.23;;;3.37;;
42760;SDS011;31672;47.638;19.026;2022-12-10T22:38:47;6.30;;;3.00;;
42760;SDS011;31672;47.638;19.026;2022-12-10T22:43:52;6.03;;;2.77;;
42760;SDS011;31672;47.638;19.026;2022-12-10T22:48:54;4.50;;;2.77;;
42760;SDS011;31672;47.638;19.026;2022-12-10T22:53:57;5.50;;;2.93;;
42760;SDS011;31672;47.638;19.026;2022-12-10T22:59:03;6.27;;;3.27;;
42760;SDS011;31672;47.638;19.026;2022-12-10T23:04:07;3.93;;;2.40;;
42760;SDS011;31672;47.638;19.026;2022-12-10T23:09:10;4.10;;;2.40;;
42760;SDS011;31672;47.638;19.026;2022-12-10T23:14:13;4.13;;;2.27;;
42760;SDS011;31672;47.638;19.026;2022-12-10T23:19:16;3.93;;;2.33;;
42760;SDS011;31672;47.638;19.026;2022-12-10T23:24:19;4.10;;;2.50;;
42760;SDS011;31672;47.638;19.026;2022-12-10T23:29:23;4.77;;;2.50;;
42760;SDS011;31672;47.638;19.026;2022-12-10T23:34:26;2.80;;;2.00;;
42760;SDS011;31672;47.638;19.026;2022-12-10T23:39:29;3.30;;;2.00;;
42760;SDS011;31672;47.638;19.026;2022-12-10T23:44:33;3.87;;;2.13;;
42760;SDS011;31672;47.638;19.026;2022-12-10T23:49:36;3.63;;;1.97;;
42760;SDS011;31672;47.638;19.026;2022-12-10T23:54:39;4.87;;;2.03;;
42760;SDS011;31672;47.638;19.026;2022-12-10T23:59:42;4.00;;;2.00;;
